sensor_id;sensor_type;location;lat;lon;timestamp;pressure;altitude;pressure_sealevel;temperature;humidity
69772;BME280;57046;45.988;18.664;2022-10-31T00:01:56;101418.72;;;11.82;100.00
69772;BME280;57046;45.988;18.664;2022-10-31T00:04:21;101397.06;;;11.68;100.00
69772;BME280;57046;45.988;18.664;2022-10-31T00:06:46;101436.38;;;11.93;100.00
69772;BME280;57046;45.988;18.664;2022-10-31T00:09:12;101418.53;;;11.79;100.00
69772;BME280;57046;45.988;18.664;2022-10-31T00:11:37;101416.72;;;11.74;100.00
69772;BME280;57046;45.988;18.664;2022-10-31T00:14:03;101401.19;;;11.66;100.00
69772;BME280;57046;45.988;18.664;2022-10-31T00:16:28;101431.28;;;11.78;100.00
69772;BME280;57046;45.988;18.664;2022-10-31T00:19:00;101415.84;;;11.79;100.00
69772;BME280;57046;45.988;18.664;2022-10-31T00:21:26;101382.03;;;11.62;100.00
69772;BME280;57046;45.988;18.664;2022-10-31T00:23:52;101432.72;;;11.98;100.00
69772;BME280;57046;45.988;18.664;2022-10-31T00:26:18;101412.22;;;11.83;100.00
69772;BME280;57046;45.988;18.664;2022-10-31T00:28:43;101414.94;;;11.83;100.00
69772;BME280;57046;45.988;18.664;2022-10-31T00:31:10;101428.72;;;11.95;100.00
69772;BME280;57046;45.988;18.664;2022-10-31T00:33:37;101421.94;;;11.84;100.00
69772;BME280;57046;45.988;18.664;2022-10-31T00:36:03;101428.34;;;11.88;100.00
69772;BME280;57046;45.988;18.664;2022-10-31T00:38:29;101433.47;;;11.90;100.00
69772;BME280;57046;45.988;18.664;2022-10-31T00:40:54;101412.63;;;11.77;100.00
69772;BME280;57046;45.988;18.664;2022-10-31T00:43:19;101440.09;;;11.97;100.00
69772;BME280;57046;45.988;18.664;2022-10-31T00:45:45;101430.34;;;11.96;100.00
69772;BME280;57046;45.988;18.664;2022-10-31T00:48:10;101432.53;;;11.94;100.00
69772;BME280;57046;45.988;18.664;2022-10-31T00:50:35;101422.13;;;11.88;100.00
69772;BME280;57046;45.988;18.664;2022-10-31T00:53:01;101404.31;;;11.73;100.00
69772;BME280;57046;45.988;18.664;2022-10-31T00:55:27;101424.16;;;11.82;100.00
69772;BME280;57046;45.988;18.664;2022-10-31T00:57:52;101436.56;;;11.97;100.00
69772;BME280;57046;45.988;18.664;2022-10-31T01:00:17;101416.53;;;11.70;100.00
69772;BME280;57046;45.988;18.664;2022-10-31T01:02:43;101431.19;;;11.83;100.00
69772;BME280;57046;45.988;18.664;2022-10-31T01:05:08;101432.78;;;11.70;100.00
69772;BME280;57046;45.988;18.664;2022-10-31T01:07:40;101434.31;;;11.77;100.00
69772;BME280;57046;45.988;18.664;2022-10-31T01:10:06;101405.19;;;11.68;100.00
69772;BME280;57046;45.988;18.664;2022-10-31T01:12:40;101420.03;;;11.85;100.00
69772;BME280;57046;45.988;18.664;2022-10-31T01:15:07;101408.13;;;11.72;100.00
69772;BME280;57046;45.988;18.664;2022-10-31T01:17:33;101418.72;;;11.82;100.00
69772;BME280;57046;45.988;18.664;2022-10-31T01:19:58;101401.00;;;11.76;100.00
69772;BME280;57046;45.988;18.664;2022-10-31T01:22:23;101399.47;;;11.70;100.00
69772;BME280;57046;45.988;18.664;2022-10-31T01:24:49;101374.03;;;11.57;100.00
69772;BME280;57046;45.988;18.664;2022-10-31T01:27:14;101400.19;;;11.76;100.00
69772;BME280;57046;45.988;18.664;2022-10-31T01:29:39;101386.66;;;11.62;100.00
69772;BME280;57046;45.988;18.664;2022-10-31T01:32:05;101392.25;;;11.65;100.00
69772;BME280;57046;45.988;18.664;2022-10-31T01:34:30;101405.81;;;11.79;100.00
69772;BME280;57046;45.988;18.664;2022-10-31T01:36:55;101405.00;;;11.79;100.00
69772;BME280;57046;45.988;18.664;2022-10-31T01:39:21;101416.31;;;11.81;100.00
69772;BME280;57046;45.988;18.664;2022-10-31T01:41:49;101395.41;;;11.72;100.00
69772;BME280;57046;45.988;18.664;2022-10-31T01:49:39;101362.03;;;11.50;100.00
69772;BME280;57046;45.988;18.664;2022-10-31T01:52:12;101399.38;;;11.75;100.00
69772;BME280;57046;45.988;18.664;2022-10-31T01:54:47;101403.72;;;11.76;100.00
69772;BME280;57046;45.988;18.664;2022-10-31T01:57:14;101406.63;;;11.80;100.00
69772;BME280;57046;45.988;18.664;2022-10-31T01:59:44;101415.53;;;11.80;100.00
69772;BME280;57046;45.988;18.664;2022-10-31T02:02:11;101380.34;;;11.66;100.00
69772;BME280;57046;45.988;18.664;2022-10-31T02:04:38;101374.34;;;11.56;100.00
69772;BME280;57046;45.988;18.664;2022-10-31T02:07:23;101370.91;;;11.50;100.00
69772;BME280;57046;45.988;18.664;2022-10-31T02:09:51;101379.75;;;11.56;100.00
69772;BME280;57046;45.988;18.664;2022-10-31T02:12:18;101392.47;;;11.69;100.00
69772;BME280;57046;45.988;18.664;2022-10-31T02:14:44;101391.38;;;11.70;100.00
69772;BME280;57046;45.988;18.664;2022-10-31T02:17:10;101373.78;;;11.67;100.00
69772;BME280;57046;45.988;18.664;2022-10-31T02:33:26;101385.44;;;11.68;100.00
69772;BME280;57046;45.988;18.664;2022-10-31T02:36:52;101381.13;;;11.67;100.00
69772;BME280;57046;45.988;18.664;2022-10-31T02:44:36;101388.06;;;11.73;100.00
69772;BME280;57046;45.988;18.664;2022-10-31T02:47:14;101386.75;;;11.70;100.00
69772;BME280;57046;45.988;18.664;2022-10-31T02:52:30;101392.06;;;11.76;100.00
69772;BME280;57046;45.988;18.664;2022-10-31T02:54:56;101399.38;;;11.75;100.00
69772;BME280;57046;45.988;18.664;2022-10-31T02:57:25;101400.19;;;11.76;100.00
69772;BME280;57046;45.988;18.664;2022-10-31T02:59:56;101383.94;;;11.62;100.00
69772;BME280;57046;45.988;18.664;2022-10-31T03:03:09;101406.09;;;11.78;100.00
69772;BME280;57046;45.988;18.664;2022-10-31T03:06:17;101403.28;;;11.69;100.00
69772;BME280;57046;45.988;18.664;2022-10-31T03:11:58;101403.19;;;11.74;100.00
69772;BME280;57046;45.988;18.664;2022-10-31T03:14:48;101405.63;;;11.76;100.00
69772;BME280;57046;45.988;18.664;2022-10-31T03:17:22;101389.56;;;11.65;100.00
69772;BME280;57046;45.988;18.664;2022-10-31T03:19:52;101404.50;;;11.77;100.00
69772;BME280;57046;45.988;18.664;2022-10-31T03:22:22;101392.47;;;11.69;100.00
69772;BME280;57046;45.988;18.664;2022-10-31T03:24:49;101377.56;;;11.44;100.00
69772;BME280;57046;45.988;18.664;2022-10-31T03:27:20;101405.81;;;11.79;100.00
69772;BME280;57046;45.988;18.664;2022-10-31T03:29:49;101366.31;;;11.51;100.00
69772;BME280;57046;45.988;18.664;2022-10-31T03:32:20;101357.19;;;11.47;100.00
69772;BME280;57046;45.988;18.664;2022-10-31T03:34:48;101371.13;;;11.54;100.00
69772;BME280;57046;45.988;18.664;2022-10-31T03:37:17;101359.22;;;11.41;100.00
69772;BME280;57046;45.988;18.664;2022-10-31T03:39:45;101354.41;;;11.38;100.00
69772;BME280;57046;45.988;18.664;2022-10-31T03:42:20;101384.34;;;11.55;100.00
69772;BME280;57046;45.988;18.664;2022-10-31T03:44:51;101411.03;;;11.62;100.00
69772;BME280;57046;45.988;18.664;2022-10-31T03:47:18;101384.38;;;11.42;100.00
69772;BME280;57046;45.988;18.664;2022-10-31T03:49:44;101381.75;;;11.37;100.00
69772;BME280;57046;45.988;18.664;2022-10-31T03:52:55;101406.31;;;11.54;100.00
69772;BME280;57046;45.988;18.664;2022-10-31T03:55:26;101406.22;;;11.45;100.00
69772;BME280;57046;45.988;18.664;2022-10-31T03:58:03;101396.81;;;11.43;100.00
69772;BME280;57046;45.988;18.664;2022-10-31T04:00:30;101391.00;;;11.36;100.00
69772;BME280;57046;45.988;18.664;2022-10-31T04:03:04;101370.06;;;11.28;100.00
69772;BME280;57046;45.988;18.664;2022-10-31T04:05:31;101417.66;;;11.56;100.00
69772;BME280;57046;45.988;18.664;2022-10-31T04:07:58;101396.22;;;11.46;100.00
69772;BME280;57046;45.988;18.664;2022-10-31T04:10:26;101402.72;;;11.45;100.00
69772;BME280;57046;45.988;18.664;2022-10-31T04:12:57;101413.34;;;11.55;100.00
69772;BME280;57046;45.988;18.664;2022-10-31T04:15:26;101380.97;;;11.36;100.00
69772;BME280;57046;45.988;18.664;2022-10-31T04:17:55;101409.03;;;11.40;100.00
69772;BME280;57046;45.988;18.664;2022-10-31T04:20:34;101408.13;;;11.45;100.00
69772;BME280;57046;45.988;18.664;2022-10-31T04:23:01;101385.41;;;11.18;100.00
69772;BME280;57046;45.988;18.664;2022-10-31T04:25:26;101382.50;;;11.15;100.00
69772;BME280;57046;45.988;18.664;2022-10-31T04:27:52;101378.56;;;11.07;100.00
69772;BME280;57046;45.988;18.664;2022-10-31T04:30:17;101402.31;;;11.24;100.00
69772;BME280;57046;45.988;18.664;2022-10-31T04:32:42;101417.25;;;11.21;100.00
69772;BME280;57046;45.988;18.664;2022-10-31T04:35:08;101407.94;;;11.28;100.00
69772;BME280;57046;45.988;18.664;2022-10-31T04:37:33;101363.75;;;11.05;100.00
69772;BME280;57046;45.988;18.664;2022-10-31T04:39:58;101360.66;;;10.98;100.00
69772;BME280;57046;45.988;18.664;2022-10-31T04:42:23;101317.97;;;10.81;100.00
69772;BME280;57046;45.988;18.664;2022-10-31T04:44:49;101386.97;;;11.19;100.00
69772;BME280;57046;45.988;18.664;2022-10-31T04:47:14;101398.31;;;11.21;100.00
69772;BME280;57046;45.988;18.664;2022-10-31T04:49:39;101405.03;;;11.24;100.00
69772;BME280;57046;45.988;18.664;2022-10-31T04:52:05;101372.69;;;11.05;100.00
69772;BME280;57046;45.988;18.664;2022-10-31T04:54:30;101368.25;;;10.96;100.00
69772;BME280;57046;45.988;18.664;2022-10-31T04:56:55;101412.44;;;11.18;100.00
69772;BME280;57046;45.988;18.664;2022-10-31T04:59:21;101425.78;;;11.29;100.00
69772;BME280;57046;45.988;18.664;2022-10-31T05:01:46;101415.44;;;11.31;100.00
69772;BME280;57046;45.988;18.664;2022-10-31T05:04:11;101395.81;;;11.11;100.00
69772;BME280;57046;45.988;18.664;2022-10-31T05:06:37;101404.81;;;11.07;100.00
69772;BME280;57046;45.988;18.664;2022-10-31T05:09:02;101408.53;;;11.11;100.00
69772;BME280;57046;45.988;18.664;2022-10-31T05:11:27;101418.66;;;11.19;100.00
69772;BME280;57046;45.988;18.664;2022-10-31T05:13:53;101403.59;;;11.13;100.00
69772;BME280;57046;45.988;18.664;2022-10-31T05:16:18;101400.69;;;11.09;100.00
69772;BME280;57046;45.988;18.664;2022-10-31T05:18:44;101387.56;;;11.03;100.00
69772;BME280;57046;45.988;18.664;2022-10-31T05:21:09;101413.13;;;11.24;100.00
69772;BME280;57046;45.988;18.664;2022-10-31T05:23:34;101390.47;;;11.06;100.00
69772;BME280;57046;45.988;18.664;2022-10-31T05:26:00;101421.56;;;11.22;100.00
69772;BME280;57046;45.988;18.664;2022-10-31T05:28:26;101416.66;;;11.11;100.00
69772;BME280;57046;45.988;18.664;2022-10-31T05:30:54;101425.97;;;11.18;100.00
69772;BME280;57046;45.988;18.664;2022-10-31T05:33:20;101424.16;;;11.14;100.00
69772;BME280;57046;45.988;18.664;2022-10-31T05:35:45;101419.75;;;11.18;100.00
69772;BME280;57046;45.988;18.664;2022-10-31T05:38:10;101405.22;;;11.00;100.00
69772;BME280;57046;45.988;18.664;2022-10-31T05:40:36;101431.56;;;11.08;100.00
69772;BME280;57046;45.988;18.664;2022-10-31T05:43:01;101404.81;;;10.93;100.00
69772;BME280;57046;45.988;18.664;2022-10-31T05:45:27;101373.03;;;10.71;100.00
69772;BME280;57046;45.988;18.664;2022-10-31T05:47:54;101439.38;;;11.10;100.00
69772;BME280;57046;45.988;18.664;2022-10-31T05:50:20;101433.75;;;11.06;100.00
69772;BME280;57046;45.988;18.664;2022-10-31T05:52:46;101401.78;;;10.81;100.00
69772;BME280;57046;45.988;18.664;2022-10-31T05:55:12;101412.28;;;10.83;100.00
69772;BME280;57046;45.988;18.664;2022-10-31T05:57:38;101445.28;;;10.98;100.00
69772;BME280;57046;45.988;18.664;2022-10-31T06:00:04;101439.34;;;10.96;100.00
69772;BME280;57046;45.988;18.664;2022-10-31T06:02:30;101427.41;;;10.84;100.00
69772;BME280;57046;45.988;18.664;2022-10-31T06:04:55;101435.31;;;10.80;100.00
69772;BME280;57046;45.988;18.664;2022-10-31T06:07:21;101406.22;;;10.58;100.00
69772;BME280;57046;45.988;18.664;2022-10-31T06:09:46;101469.50;;;10.90;100.00
69772;BME280;57046;45.988;18.664;2022-10-31T06:12:11;101466.56;;;10.86;100.00
69772;BME280;57046;45.988;18.664;2022-10-31T06:14:37;101448.00;;;10.66;100.00
69772;BME280;57046;45.988;18.664;2022-10-31T06:17:03;101458.03;;;10.79;100.00
69772;BME280;57046;45.988;18.664;2022-10-31T06:19:28;101470.97;;;10.82;100.00
69772;BME280;57046;45.988;18.664;2022-10-31T06:21:55;101446.09;;;10.66;100.00
69772;BME280;57046;45.988;18.664;2022-10-31T06:24:21;101473.38;;;10.84;100.00
69772;BME280;57046;45.988;18.664;2022-10-31T06:26:46;101475.22;;;10.88;100.00
69772;BME280;57046;45.988;18.664;2022-10-31T06:29:12;101446.59;;;10.68;100.00
69772;BME280;57046;45.988;18.664;2022-10-31T06:31:38;101475.28;;;10.83;100.00
69772;BME280;57046;45.988;18.664;2022-10-31T06:34:03;101450.00;;;10.60;100.00
69772;BME280;57046;45.988;18.664;2022-10-31T06:36:29;101433.13;;;10.50;100.00
69772;BME280;57046;45.988;18.664;2022-10-31T06:38:54;101482.97;;;10.76;100.00
69772;BME280;57046;45.988;18.664;2022-10-31T06:41:20;101491.41;;;10.75;100.00
69772;BME280;57046;45.988;18.664;2022-10-31T06:43:46;101454.09;;;10.58;100.00
69772;BME280;57046;45.988;18.664;2022-10-31T06:46:12;101478.59;;;10.61;100.00
69772;BME280;57046;45.988;18.664;2022-10-31T06:48:40;101474.59;;;10.59;100.00
69772;BME280;57046;45.988;18.664;2022-10-31T06:51:05;101474.44;;;10.69;100.00
69772;BME280;57046;45.988;18.664;2022-10-31T06:53:30;101477.88;;;10.75;100.00
69772;BME280;57046;45.988;18.664;2022-10-31T06:55:56;101439.47;;;10.59;100.00
69772;BME280;57046;45.988;18.664;2022-10-31T06:58:23;101499.25;;;10.90;100.00
69772;BME280;57046;45.988;18.664;2022-10-31T07:00:49;101480.06;;;10.72;100.00
69772;BME280;57046;45.988;18.664;2022-10-31T07:03:15;101493.53;;;10.91;100.00
69772;BME280;57046;45.988;18.664;2022-10-31T07:05:41;101502.56;;;11.00;100.00
69772;BME280;57046;45.988;18.664;2022-10-31T07:08:09;101429.63;;;10.49;100.00
69772;BME280;57046;45.988;18.664;2022-10-31T07:10:36;101500.91;;;11.04;100.00
69772;BME280;57046;45.988;18.664;2022-10-31T07:13:06;101503.38;;;11.01;100.00
69772;BME280;57046;45.988;18.664;2022-10-31T07:15:35;101485.50;;;10.86;100.00
69772;BME280;57046;45.988;18.664;2022-10-31T07:18:05;101506.59;;;11.03;100.00
69772;BME280;57046;45.988;18.664;2022-10-31T07:20:31;101482.53;;;10.88;100.00
69772;BME280;57046;45.988;18.664;2022-10-31T07:22:57;101495.06;;;10.97;100.00
69772;BME280;57046;45.988;18.664;2022-10-31T07:25:23;101459.72;;;10.75;100.00
69772;BME280;57046;45.988;18.664;2022-10-31T07:27:49;101515.50;;;11.03;100.00
69772;BME280;57046;45.988;18.664;2022-10-31T07:30:15;101420.97;;;10.34;100.00
69772;BME280;57046;45.988;18.664;2022-10-31T07:33:01;101543.47;;;11.12;100.00
69772;BME280;57046;45.988;18.664;2022-10-31T07:35:28;101487.97;;;11.01;100.00
69772;BME280;57046;45.988;18.664;2022-10-31T07:37:54;101510.94;;;11.17;100.00
69772;BME280;57046;45.988;18.664;2022-10-31T07:40:20;101464.41;;;10.88;100.00
69772;BME280;57046;45.988;18.664;2022-10-31T07:42:48;101492.28;;;11.16;100.00
69772;BME280;57046;45.988;18.664;2022-10-31T07:45:18;101513.75;;;11.26;100.00
69772;BME280;57046;45.988;18.664;2022-10-31T07:47:54;101475.25;;;11.02;100.00
69772;BME280;57046;45.988;18.664;2022-10-31T07:50:29;101499.13;;;11.27;100.00
69772;BME280;57046;45.988;18.664;2022-10-31T07:53:02;101502.25;;;11.34;100.00
69772;BME280;57046;45.988;18.664;2022-10-31T07:55:31;101472.16;;;11.08;100.00
69772;BME280;57046;45.988;18.664;2022-10-31T07:57:59;101504.16;;;11.34;100.00
69772;BME280;57046;45.988;18.664;2022-10-31T08:00:25;101510.56;;;11.38;100.00
69772;BME280;57046;45.988;18.664;2022-10-31T08:03:05;101493.13;;;11.30;100.00
69772;BME280;57046;45.988;18.664;2022-10-31T08:05:33;101514.59;;;11.54;100.00
69772;BME280;57046;45.988;18.664;2022-10-31T08:08:13;101478.28;;;11.28;100.00
69772;BME280;57046;45.988;18.664;2022-10-31T08:10:39;101498.53;;;11.30;100.00
69772;BME280;57046;45.988;18.664;2022-10-31T08:13:07;101514.19;;;11.47;100.00
69772;BME280;57046;45.988;18.664;2022-10-31T08:15:34;101519.09;;;11.45;100.00
69772;BME280;57046;45.988;18.664;2022-10-31T08:17:59;101527.22;;;11.45;100.00
69772;BME280;57046;45.988;18.664;2022-10-31T08:20:25;101518.91;;;11.41;100.00
69772;BME280;57046;45.988;18.664;2022-10-31T08:22:57;101472.16;;;11.08;100.00
69772;BME280;57046;45.988;18.664;2022-10-31T08:25:23;101519.50;;;11.38;100.00
69772;BME280;57046;45.988;18.664;2022-10-31T08:27:53;101532.13;;;11.43;100.00
69772;BME280;57046;45.988;18.664;2022-10-31T08:30:23;101506.56;;;11.35;100.00
69772;BME280;57046;45.988;18.664;2022-10-31T08:33:01;101520.19;;;11.44;100.00
69772;BME280;57046;45.988;18.664;2022-10-31T08:35:27;101531.03;;;11.57;100.00
69772;BME280;57046;45.988;18.664;2022-10-31T08:37:56;101486.22;;;11.38;100.00
69772;BME280;57046;45.988;18.664;2022-10-31T08:40:23;101530.03;;;11.67;100.00
69772;BME280;57046;45.988;18.664;2022-10-31T08:43:04;101484.81;;;11.40;100.00
69772;BME280;57046;45.988;18.664;2022-10-31T08:45:31;101499.34;;;11.58;100.00
69772;BME280;57046;45.988;18.664;2022-10-31T08:47:59;101521.63;;;11.68;100.00
69772;BME280;57046;45.988;18.664;2022-10-31T08:50:25;101531.59;;;11.73;100.00
69772;BME280;57046;45.988;18.664;2022-10-31T08:52:50;101528.28;;;11.76;100.00
69772;BME280;57046;45.988;18.664;2022-10-31T08:55:15;101503.69;;;11.72;100.00
69772;BME280;57046;45.988;18.664;2022-10-31T08:57:41;101497.84;;;11.65;100.00
69772;BME280;57046;45.988;18.664;2022-10-31T09:00:07;101502.38;;;11.70;100.00
69772;BME280;57046;45.988;18.664;2022-10-31T09:02:32;101505.88;;;11.70;100.00
69772;BME280;57046;45.988;18.664;2022-10-31T09:04:57;101525.16;;;11.96;100.00
69772;BME280;57046;45.988;18.664;2022-10-31T09:07:23;101497.06;;;11.79;100.00
69772;BME280;57046;45.988;18.664;2022-10-31T09:09:48;101509.72;;;11.83;100.00
69772;BME280;57046;45.988;18.664;2022-10-31T09:12:13;101503.09;;;11.89;100.00
69772;BME280;57046;45.988;18.664;2022-10-31T09:14:39;101493.28;;;11.80;100.00
69772;BME280;57046;45.988;18.664;2022-10-31T09:17:04;101517.91;;;12.05;100.00
69772;BME280;57046;45.988;18.664;2022-10-31T09:19:30;101488.75;;;11.89;100.00
69772;BME280;57046;45.988;18.664;2022-10-31T09:21:55;101461.75;;;11.70;100.00
69772;BME280;57046;45.988;18.664;2022-10-31T09:24:20;101517.81;;;12.10;100.00
69772;BME280;57046;45.988;18.664;2022-10-31T09:26:46;101518.44;;;12.07;100.00
69772;BME280;57046;45.988;18.664;2022-10-31T09:29:11;101456.44;;;11.79;100.00
69772;BME280;57046;45.988;18.664;2022-10-31T09:31:36;101475.31;;;11.97;100.00
69772;BME280;57046;45.988;18.664;2022-10-31T09:34:02;101509.66;;;12.24;100.00
69772;BME280;57046;45.988;18.664;2022-10-31T09:36:27;101478.06;;;12.06;100.00
69772;BME280;57046;45.988;18.664;2022-10-31T09:38:53;101504.13;;;12.29;100.00
69772;BME280;57046;45.988;18.664;2022-10-31T09:44:07;101502.09;;;12.35;100.00
69772;BME280;57046;45.988;18.664;2022-10-31T09:52:51;101507.16;;;12.50;100.00
69772;BME280;57046;45.988;18.664;2022-10-31T09:55:19;101481.91;;;12.41;100.00
69772;BME280;57046;45.988;18.664;2022-10-31T09:57:46;101486.38;;;12.45;100.00
69772;BME280;57046;45.988;18.664;2022-10-31T10:00:20;101484.00;;;12.44;100.00
69772;BME280;57046;45.988;18.664;2022-10-31T10:02:47;101504.03;;;12.56;100.00
69772;BME280;57046;45.988;18.664;2022-10-31T10:05:20;101485.81;;;12.48;100.00
69772;BME280;57046;45.988;18.664;2022-10-31T10:23:55;101486.22;;;12.64;100.00
69772;BME280;57046;45.988;18.664;2022-10-31T10:26:38;101486.09;;;12.69;100.00
69772;BME280;57046;45.988;18.664;2022-10-31T10:31:55;101480.56;;;12.74;100.00
69772;BME280;57046;45.988;18.664;2022-10-31T10:34:28;101463.19;;;12.75;100.00
69772;BME280;57046;45.988;18.664;2022-10-31T10:36:58;101483.19;;;12.88;100.00
69772;BME280;57046;45.988;18.664;2022-10-31T10:41:55;101443.03;;;12.67;100.00
69772;BME280;57046;45.988;18.664;2022-10-31T10:44:20;101472.91;;;12.76;100.00
69772;BME280;57046;45.988;18.664;2022-10-31T10:46:55;101485.72;;;12.84;100.00
69772;BME280;57046;45.988;18.664;2022-10-31T10:59:42;101430.50;;;12.80;100.00
69772;BME280;57046;45.988;18.664;2022-10-31T11:02:19;101472.22;;;13.15;100.00
69772;BME280;57046;45.988;18.664;2022-10-31T11:04:49;101469.63;;;13.10;100.00
69772;BME280;57046;45.988;18.664;2022-10-31T11:07:15;101477.94;;;13.13;100.00
69772;BME280;57046;45.988;18.664;2022-10-31T11:09:40;101465.84;;;13.19;100.00
69772;BME280;57046;45.988;18.664;2022-10-31T11:12:14;101457.88;;;13.23;100.00
69772;BME280;57046;45.988;18.664;2022-10-31T11:14:53;101462.34;;;13.27;100.00
69772;BME280;57046;45.988;18.664;2022-10-31T11:17:27;101455.47;;;13.21;100.00
69772;BME280;57046;45.988;18.664;2022-10-31T11:22:38;101440.97;;;13.26;100.00
69772;BME280;57046;45.988;18.664;2022-10-31T11:27:44;101438.25;;;13.26;100.00
69772;BME280;57046;45.988;18.664;2022-10-31T11:30:14;101428.50;;;13.16;100.00
69772;BME280;57046;45.988;18.664;2022-10-31T11:32:48;101459.38;;;13.38;100.00
69772;BME280;57046;45.988;18.664;2022-10-31T11:35:15;101450.91;;;13.39;100.00
69772;BME280;57046;45.988;18.664;2022-10-31T11:37:43;101449.47;;;13.33;100.00
69772;BME280;57046;45.988;18.664;2022-10-31T11:40:24;101444.81;;;13.34;100.00
69772;BME280;57046;45.988;18.664;2022-10-31T11:42:52;101450.91;;;13.39;100.00
69772;BME280;57046;45.988;18.664;2022-10-31T11:47:50;101440.19;;;13.34;100.00
69772;BME280;57046;45.988;18.664;2022-10-31T11:50:25;101445.00;;;13.37;100.00
69772;BME280;57046;45.988;18.664;2022-10-31T11:52:52;101418.44;;;13.25;100.00
69772;BME280;57046;45.988;18.664;2022-10-31T11:55:37;101445.50;;;13.48;100.00
69772;BME280;57046;45.988;18.664;2022-10-31T11:58:04;101439.94;;;13.53;100.00
69772;BME280;57046;45.988;18.664;2022-10-31T12:00:36;101426.66;;;13.43;100.00
69772;BME280;57046;45.988;18.664;2022-10-31T12:08:38;101434.34;;;13.49;100.00
69772;BME280;57046;45.988;18.664;2022-10-31T12:16:36;101379.50;;;13.30;100.00
69772;BME280;57046;45.988;18.664;2022-10-31T12:19:10;101418.06;;;13.58;100.00
69772;BME280;57046;45.988;18.664;2022-10-31T12:22:02;101427.69;;;13.64;100.00
69772;BME280;57046;45.988;18.664;2022-10-31T12:24:42;101422.38;;;13.59;100.00
69772;BME280;57046;45.988;18.664;2022-10-31T12:30:13;101402.56;;;13.50;100.00
69772;BME280;57046;45.988;18.664;2022-10-31T12:35:49;101416.66;;;13.69;100.00
69772;BME280;57046;45.988;18.664;2022-10-31T12:38:29;101407.72;;;13.86;100.00
69772;BME280;57046;45.988;18.664;2022-10-31T12:43:53;101379.88;;;13.46;100.00
69772;BME280;57046;45.988;18.664;2022-10-31T12:54:54;101421.31;;;13.86;100.00
69772;BME280;57046;45.988;18.664;2022-10-31T12:57:38;101416.22;;;13.93;100.00
69772;BME280;57046;45.988;18.664;2022-10-31T13:00:12;101405.16;;;13.89;100.00
69772;BME280;57046;45.988;18.664;2022-10-31T13:02:57;101405.66;;;13.91;100.00
69772;BME280;57046;45.988;18.664;2022-10-31T13:07:55;101391.75;;;14.10;100.00
69772;BME280;57046;45.988;18.664;2022-10-31T13:10:41;101418.00;;;14.14;100.00
69772;BME280;57046;45.988;18.664;2022-10-31T13:13:21;101402.00;;;14.04;100.00
69772;BME280;57046;45.988;18.664;2022-10-31T13:16:04;101419.28;;;14.08;100.00
69772;BME280;57046;45.988;18.664;2022-10-31T13:18:40;101408.69;;;13.98;100.00
69772;BME280;57046;45.988;18.664;2022-10-31T13:21:11;101408.06;;;13.93;100.00
69772;BME280;57046;45.988;18.664;2022-10-31T13:23:39;101393.66;;;13.84;100.00
69772;BME280;57046;45.988;18.664;2022-10-31T13:26:21;101394.00;;;13.91;100.00
69772;BME280;57046;45.988;18.664;2022-10-31T13:28:52;101420.84;;;14.01;100.00
69772;BME280;57046;45.988;18.664;2022-10-31T13:31:20;101416.53;;;13.91;100.00
69772;BME280;57046;45.988;18.664;2022-10-31T13:34:03;101419.09;;;13.88;100.00
69772;BME280;57046;45.988;18.664;2022-10-31T13:36:52;101418.44;;;13.82;100.00
69772;BME280;57046;45.988;18.664;2022-10-31T13:44:35;101421.16;;;13.73;100.00
69772;BME280;57046;45.988;18.664;2022-10-31T13:47:01;101419.84;;;13.71;100.00
69772;BME280;57046;45.988;18.664;2022-10-31T13:49:38;101433.13;;;13.72;100.00
69772;BME280;57046;45.988;18.664;2022-10-31T13:54:43;101425.28;;;13.71;100.00
69772;BME280;57046;45.988;18.664;2022-10-31T13:59:49;101423.66;;;13.61;100.00
69772;BME280;57046;45.988;18.664;2022-10-31T14:02:17;101419.53;;;13.64;100.00
69772;BME280;57046;45.988;18.664;2022-10-31T14:04:49;101417.59;;;13.64;100.00
69772;BME280;57046;45.988;18.664;2022-10-31T14:07:17;101386.41;;;13.45;100.00
69772;BME280;57046;45.988;18.664;2022-10-31T14:12:43;101411.84;;;13.66;100.00
69772;BME280;57046;45.988;18.664;2022-10-31T14:15:17;101416.47;;;13.65;100.00
69772;BME280;57046;45.988;18.664;2022-10-31T14:17:58;101410.25;;;13.56;100.00
69772;BME280;57046;45.988;18.664;2022-10-31T14:20:43;101407.38;;;13.61;100.00
69772;BME280;57046;45.988;18.664;2022-10-31T14:23:32;101411.69;;;13.62;100.00
69772;BME280;57046;45.988;18.664;2022-10-31T14:26:20;101411.22;;;13.60;100.00
69772;BME280;57046;45.988;18.664;2022-10-31T14:28:47;101401.75;;;13.49;100.00
69772;BME280;57046;45.988;18.664;2022-10-31T14:33:56;101392.66;;;13.54;100.00
69772;BME280;57046;45.988;18.664;2022-10-31T14:36:33;101403.06;;;13.60;100.00
69772;BME280;57046;45.988;18.664;2022-10-31T14:39:17;101402.25;;;13.60;100.00
69772;BME280;57046;45.988;18.664;2022-10-31T14:41:54;101380.84;;;13.50;100.00
69772;BME280;57046;45.988;18.664;2022-10-31T14:44:34;101413.78;;;13.65;100.00
69772;BME280;57046;45.988;18.664;2022-10-31T14:50:07;101407.22;;;13.66;100.00
69772;BME280;57046;45.988;18.664;2022-10-31T14:52:36;101395.06;;;13.55;100.00